ADDS METAR Data INFO
IDs: Format: Raw Decoded Include TAF

Data at: 0505 UTC 23 May 2017

KGYB 230455Z AUTO 35003KT 10SM CLR 19/18 A2992 RMK AO2 T01880175
KGYB 230435Z AUTO 00000KT 10SM CLR 19/17 A2991 RMK AO2 T01880174
KGYB 230415Z AUTO 00000KT 10SM CLR 19/18 A2992 RMK AO2 T01880175
KGYB 230355Z AUTO 00000KT 10SM SCT020 20/18 A2991 RMK AO2 T01950177
KGYB 230335Z AUTO 00000KT 10SM OVC020 20/18 A2992 RMK AO2 T01950178
KGYB 230315Z AUTO 00000KT 10SM BKN020 20/18 A2991 RMK AO2 T01970178
KGYB 230255Z AUTO 00000KT 10SM SCT018 19/18 A2990 RMK AO2 T01930175
KGYB 230235Z AUTO 06003KT 10SM BKN018 20/18 A2991 RMK AO2 T02020175
KGYB 230215Z AUTO 04003KT 10SM OVC018 20/18 A2990 RMK AO2 T02030176
KGYB 230155Z AUTO 00000KT 10SM OVC018 21/18 A2990 RMK AO2 T02050176
KGYB 230135Z AUTO 05004KT 10SM OVC016 21/18 A2990 RMK AO2 T02110177
KGYB 230115Z AUTO 05004KT 10SM OVC016 21/18 A2990 RMK AO2 T02120177
KGYB 230055Z AUTO 05005KT 10SM OVC016 22/18 A2990 RMK AO2 T02150177
KGYB 230035Z AUTO 04005KT 10SM BKN016 22/18 A2990 RMK AO2 T02180178
KGYB 230015Z AUTO 02006KT 10SM SCT016 22/18 A2990 RMK AO2 T02220180
KGYB 222355Z AUTO 03005KT 10SM SCT016 23/18 A2990 RMK AO2 T02250181 10237 20197
KGYB 222335Z AUTO 04006KT 10SM SCT016 23/18 A2990 RMK AO2 T02270181
KGYB 222315Z AUTO 04004KT 10SM SCT018 23/18 A2991 RMK AO2 T02330183
KGYB 222255Z AUTO 04004KT 10SM BKN018 24/18 A2991 RMK AO2 T02350183
KGYB 222235Z AUTO 07009KT 10SM OVC018 24/18 A2991 RMK AO2 T02350183
KGYB 222215Z AUTO 04006KT 10SM OVC018 23/18 A2992 RMK AO2 T02280182
KGYB 222155Z AUTO 05005KT 10SM OVC016 23/18 A2992 RMK AO2 T02320184
KGYB 222135Z AUTO 06007KT 10SM OVC016 23/19 A2993 RMK AO2 T02300185
KGYB 222115Z AUTO 07007KT 10SM OVC016 23/19 A2993 RMK AO2 T02280185
KGYB 222055Z AUTO 06007KT 10SM OVC014 22/18 A2994 RMK AO2 T02220184
KGYB 222035Z AUTO 07006KT 10SM OVC014 23/19 A2995 RMK AO2 T02250185
KGYB 222015Z AUTO 07006KT 10SM OVC014 22/18 A2995 RMK AO2 T02210183
KGYB 221955Z AUTO 05006KT 10SM OVC014 22/19 A2996 RMK AO2 T02200185
KGYB 221935Z AUTO 05009KT 10SM OVC012 22/19 A2997 RMK AO2 T02200186
KGYB 221915Z AUTO 05007KT 020V080 10SM OVC010 22/19 A2997 RMK AO2 T02200186
KGYB 221855Z AUTO 06007KT 10SM OVC008 22/18 A2998 RMK AO2 T02150184
KGYB 221835Z AUTO 06008KT 10SM OVC008 21/18 A2999 RMK AO2 T02060180
KGYB 221815Z AUTO 04005KT 10SM OVC008 20/18 A3000 RMK AO2 T02000179
KGYB 221755Z AUTO 05005KT 10SM OVC006 20/18 A3000 RMK AO2 60001 T01970178 10199 20161
KGYB 221735Z AUTO 04007KT 10SM OVC006 20/18 A3001 RMK AO2 T01990177
KGYB 221715Z AUTO 07007KT 10SM OVC006 19/18 A3001 RMK AO2 T01930175
KGYB 221655Z AUTO 07009G14KT 10SM OVC006 19/18 A3001 RMK AO2 T01860175
KGYB 221635Z AUTO 05005KT 10SM OVC006 18/17 A3002 RMK AO2 T01800170
KGYB 221615Z AUTO 05007KT 10SM OVC004 18/17 A3003 RMK AO2 T01800172
KGYB 221555Z AUTO 05006KT 10SM OVC004 18/17 A3002 RMK AO2 T01800173
KGYB 221535Z AUTO 05004KT 10SM OVC004 18/17 A3002 RMK AO2 T01760170
KGYB 221515Z AUTO 07006KT 7SM OVC004 17/17 A3002 RMK AO2 T01730167
KGYB 221455Z AUTO 04004KT 2 1/2SM -DZ OVC004 17/17 A3002 RMK AO2 60001 T01700165
KGYB 221435Z AUTO 03005KT 2SM RA OVC004 17/16 A3003 RMK AO2 T01690162
KGYB 221415Z AUTO 04005KT 4SM BR BKN004 OVC014 17/16 A3002 RMK AO2 T01680161
KGYB 221355Z AUTO 02005KT 10SM SCT004 OVC014 17/16 A3002 RMK AO2 T01670161
KGYB 221335Z AUTO 01007KT 10SM SCT004 OVC014 17/16 A3001 RMK AO2 T01650158
KGYB 221315Z AUTO 02007KT 10SM OVC014 16/16 A3001 RMK AO2 T01610155
KGYB 221255Z AUTO 03005KT 10SM SCT004 SCT008 OVC014 16/16 A3002 RMK AO2 P0001 T01610155
KGYB 221235Z AUTO 01007KT 7SM DZ OVC006 16/16 A3002 RMK AO2 P0001 T01620156
KGYB 221215Z AUTO 02007KT 7SM DZ OVC004 17/16 A3002 RMK AO2 P0001 T01650159
KGYB 221155Z AUTO 36004KT 3SM RA BKN004 BKN009 OVC015 17/16 A3002 RMK AO2 P0002 60003 70006 T01660160 10175 20166
KGYB 221135Z AUTO 01005KT 3SM -DZ BKN004 BKN009 OVC015 17/16 A3001 RMK AO2 T01670160
KGYB 221115Z AUTO 36006G14KT 3SM RA OVC007 17/17 A3000 RMK AO2 T01720165
KGYB 221055Z AUTO 36007KT 10SM OVC005 17/17 A3000 RMK AO2 T01740165
KGYB 221035Z AUTO 35006KT 10SM OVC005 17/17 A3000 RMK AO2 T01740165
KGYB 221015Z AUTO 36004KT 10SM OVC005 17/17 A3000 RMK AO2 T01730165
KGYB 220955Z AUTO 02004KT 7SM OVC005 17/17 A3001 RMK AO2 T01720165
KGYB 220935Z AUTO 01006KT 7SM OVC007 17/17 A3002 RMK AO2 T01720165
KGYB 220915Z AUTO 03005KT 7SM OVC007 17/16 A3001 RMK AO2 T01710163
KGYB 220855Z AUTO 03006KT 10SM -DZ OVC007 17/16 A3002 RMK AO2 60001 T01710163
KGYB 220835Z AUTO 02005KT 10SM RA BKN007 BKN019 17/16 A3003 RMK AO2 T01700160
KGYB 220815Z AUTO 04005KT 10SM DZ BKN009 BKN023 17/16 A3003 RMK AO2 T01700158
KGYB 220755Z AUTO 03005KT 10SM SCT009 SCT017 OVC023 17/16 A3005 RMK AO2 T01700156
KGYB 220735Z AUTO 01005KT 10SM SCT009 BKN019 17/16 A3005 RMK AO2 T01700156
KGYB 220715Z AUTO 03006KT 10SM SCT023 SCT029 SCT034 17/16 A3005 RMK AO2 T01700155
KGYB 220655Z AUTO 02006KT 10SM SCT023 OVC029 17/16 A3006 RMK AO2 P0001 T01700155
KGYB 220635Z AUTO 04006KT 10SM OVC027 17/16 A3007 RMK AO2 P0001 T01680155
KGYB 220615Z AUTO 04008KT 010V070 10SM -DZ OVC025 17/16 A3006 RMK AO2 P0001 T01670155
KGYB 220555Z AUTO 04007KT 10SM -RA BKN023 17/16 A3005 RMK AO2 60003 T01680155 10238 20168 402580168
KGYB 220535Z AUTO 01009KT 10SM -RA SCT070 SCT120 17/16 A3004 RMK AO2 T01700155
KGYB 220515Z AUTO 01005KT 10SM -RA SCT009 SCT060 SCT070 17/16 A3006 RMK AO2 T01710157
KGYB 220455Z AUTO 35006KT 10SM CLR 17/16 A3008 RMK AO2 T01740160
KGYB 220435Z AUTO 35005KT 10SM CLR 18/16 A3009 RMK AO2 T01760161
KGYB 220415Z AUTO 36003KT 10SM SCT009 SCT100 18/16 A3010 RMK AO2 T01790164
KGYB 220355Z AUTO 00000KT 10SM BKN009 18/17 A3011 RMK AO2 T01800165
KGYB 220335Z AUTO 33004KT 10SM SCT007 18/17 A3010 RMK AO2 T01820168
KGYB 220315Z AUTO 03005KT 10SM SCT007 18/17 A3005 RMK AO2 T01830170
KGYB 220255Z AUTO 02010KT 10SM SCT025 19/17 A3004 RMK AO2 60003 T01860171
KGYB 220235Z AUTO 01012G16KT 10SM BKN025 19/17 A3004 RMK AO2 T01910172
KGYB 220215Z AUTO 02010G17KT 10SM BKN023 20/17 A3004 RMK AO2 T01950173
KGYB 220155Z AUTO 01009G14KT 10SM SCT023 20/18 A3004 RMK AO2 P0002 T01980178
KGYB 220135Z AUTO 35006KT 10SM CLR 21/19 A3006 RMK AO2 P0002 T02060186
KGYB 220115Z AUTO 35007KT 5SM -RA SCT047 SCT060 21/19 A3004 RMK AO2 P0002 T02110192
KGYB 220055Z AUTO 00000KT 10SM -RA SCT045 BKN060 BKN070 22/19 A3007 RMK AO2 P0001 T02210191
KGYB 220035Z AUTO 02004KT 7SM RA BKN025 BKN043 BKN060 23/19 A3006 RMK AO2 P0001 T02260191
KGYB 220015Z AUTO 00000KT 10SM RA BKN027 OVC049 24/18 A3005 RMK AO2 T02360184
KGYB 212355Z AUTO 35003KT 10SM BKN027 BKN033 BKN045 24/18 A3002 RMK AO2 T02380182 10258 20236
KGYB 212335Z AUTO 00000KT 10SM SCT027 BKN033 OVC045 24/18 A3002 RMK AO2 T02400181
KGYB 212315Z AUTO 03005KT 10SM SCT038 BKN044 24/18 A3001 RMK AO2 T02400180
KGYB 212255Z AUTO 04007KT 360V070 10SM SCT040 24/18 A3002 RMK AO2 T02410180
KGYB 212235Z AUTO 02007G17KT 10SM CLR 25/18 A2999 RMK AO2 T02450180
KGYB 212215Z AUTO 04008KT 360V090 10SM CLR 25/18 A3002 RMK AO2 T02500183
KGYB 212155Z AUTO 05006G14KT 10SM CLR 25/18 A3003 RMK AO2 T02510180
KGYB 212135Z AUTO 02007KT 350V060 10SM SCT110 25/18 A3003 RMK AO2 T02540178
KGYB 212115Z AUTO 04005KT 10SM BKN100 BKN120 25/18 A3004 RMK AO2 T02510177
KGYB 212055Z AUTO 04006KT 10SM SCT023 SCT100 26/18 A3004 RMK AO2 T02550176
KGYB 212035Z AUTO 01007G14KT 10SM CLR 26/18 A3003 RMK AO2 T02550177
KGYB 212015Z AUTO 03009G14KT 10SM SCT022 26/18 A3003 RMK AO2 T02560180
KGYB 211955Z AUTO 04008KT 10SM BKN022 25/18 A3004 RMK AO2 T02540178
KGYB 211935Z AUTO 05007KT 10SM BKN022 25/18 A3004 RMK AO2 T02470178
KGYB 211915Z AUTO 04008KT 010V080 10SM BKN020 SCT036 25/18 A3004 RMK AO2 T02490176
KGYB 211855Z AUTO 04007KT 10SM OVC020 24/17 A3005 RMK AO2 T02400172
KGYB 211835Z AUTO 04007KT 010V070 10SM OVC018 24/18 A3005 RMK AO2 T02390176
KGYB 211815Z AUTO 04009G14KT 10SM BKN018 24/18 A3006 RMK AO2 T02430180
KGYB 211755Z AUTO 03012G15KT 360V060 10SM OVC018 24/18 A3006 RMK AO2 T02400181 10245 20203
KGYB 211735Z AUTO 05012G15KT 10SM BKN020 BKN036 24/18 A3007 RMK AO2 T02420181
KGYB 211715Z AUTO 04006G15KT 10SM SCT020 SCT036 SCT120 25/18 A3009 RMK AO2 T02450180


Page loaded:  05:05 UTC  |   10:05 PM Pacific  |   11:05 PM Mountain  |   12:05 AM Central  |   01:05 AM Eastern

 

ADVISORIES

FORECASTS

FORECASTS

OBSERVATIONS

USER TOOLS

ABOUT US